Terminal Aerodrome Forecast
Issued by NWS

Home | Current Version | Previous Version | Text Only | Print | Product List | Glossary On
Versions: 1 2 3 4 5 6 7 8 9 10 11
000
FTUS46 KMTR 191742
TAFOAK
TAF
KOAK 191742Z 1918/2024 33014KT P6SM FEW035
     FM192000 31020G27KT P6SM FEW045
     FM200400 31010KT P6SM FEW060
     FM200600 32007KT P6SM SKC
     FM201000 02004KT P6SM SKC
     FM201500 07004KT P6SM SCT120
     FM201800 VRB05KT P6SM SCT120
     FM202100 27008KT P6SM SCT120=

USA.gov is the U.S. government's official web portal to all federal, state and local government web resources and services.